• Join FlightAware (Why Join?)
  • Login
  • US Flag 
08:42AM EDT


 

Airport Tracker/Info


-or-


 

Live Flight TrackerFlight Track Log ✈ ABX188 ✈ 2013年 05月 13日 ✈ KBOS - KCVG

Flight Track Log - Related Links

Times and Time Zones

All times are in EDT time to prevent confusion due to time zone crossing. See the ABX188 flight status page for this flight to view local times or setup timezone preferences in your user account.

Time Position Orientation Groundspeed Altitude Reporting Facility
EDT Latitude Longitude Course Direction KTS MPH feet Rate Location/Type
11:11PM 42.3500 -71.0167 231° Southwest 137 158 600  Level KA90
11:13PM 42.3047 -71.0925 231° Southwest 159 183 3,800 2,400 Climbing Boston Center
11:14PM 42.2831 -71.1886 253° West 220 253 7,300 3,000 Climbing Boston Center
11:15PM 42.2964 -71.2781 281° West 239 275 9,900 2,040 Climbing Boston Center
11:16PM 42.3039 -71.4042 275° West 298 343 11,400 2,220 Climbing Boston Center
11:17PM 42.2986 -71.5250 267° West 349 402 14,400 3,180 Climbing Boston Center
11:18PM 42.2936 -71.6656 267° West 377 434 17,800 3,540 Climbing Boston Center
11:19PM 42.2842 -71.8228 265° West 388 447 21,500 3,120 Climbing Boston Center
11:20PM 42.2786 -71.9658 267° West 388 447 24,100 2,460 Climbing Boston Center
11:21PM 42.2708 -72.1175 266° West 393 452 26,500 2,220 Climbing Boston Center
11:22PM 42.2628 -72.2717 266° West 399 459 28,600 1,500 Climbing Boston Center
11:23PM 42.2544 -72.4317 266° West 420 483 29,900 1,560 Climbing Boston Center
11:24PM 42.2439 -72.6336 266° West 442 509 32,100 2,100 Climbing Boston Center
11:25PM 42.2331 -72.8017 265° West 450 518 34,100 1,620 Climbing Boston Center
11:26PM 42.2264 -72.9531 267° West 456 525 35,400 1,440 Climbing Boston Center
11:27PM 42.2150 -73.1269 265° West 461 531 37,000 1,260 Climbing Boston Center
11:28PM 42.2033 -73.2978 265° West 461 531 38,000 420 Climbing Boston Center
11:29PM 42.1978 -73.4603 267° West 455 524 37,900 -60 Descending Boston Center
11:30PM 42.1856 -73.6533 265° West 457 526 37,900  Level Boston Center
11:31PM 42.1733 -73.8100 264° West 468 539 38,000  Climbing Boston Center
11:32PM 42.1608 -73.9778 264° West 468 539 38,000  Level Boston Center
11:33PM 42.1500 -74.1483 265° West 468 539 38,000  Level Boston Center
11:34PM 42.1389 -74.3189 265° West 462 532 38,000  Level Boston Center
11:36PM 42.1108 -74.6792 264° West 462 532 38,000  Level New York Center
11:37PM 42.0989 -74.8489 265° West 462 532 38,000  Level New York Center
11:38PM 42.0842 -75.0322 264° West 462 532 38,000  Level New York Center
11:39PM 42.0736 -75.2075 265° West 462 532 38,000  Level New York Center
11:40PM 42.0403 -75.3728 255° West 462 532 38,000  Level New York Center
11:41PM 41.9822 -75.5278 243° Southwest 462 532 38,000  Level New York Center
11:42PM 41.9403 -75.6894 251° West 462 532 38,000  Level New York Center
11:43PM 41.8981 -75.8506 251° West 462 532 38,000  Level New York Center
11:44PM 41.8533 -76.0142 250° West 462 532 38,000  Level New York Center
11:45PM 41.8106 -76.1778 251° West 462 532 38,000  Level New York Center
11:46PM 41.7658 -76.3383 250° West 462 532 38,000  Level New York Center
11:47PM 41.7225 -76.5014 250° West 462 532 38,000  Level New York Center
11:48PM 41.6772 -76.6614 249° West 462 532 38,000  Level New York Center
11:49PM 41.6367 -76.8050 249° West 462 532 38,000  Level New York Center
11:50PM 41.5908 -76.9672 249° West 462 532 38,000  Level New York Center
11:51PM 41.5469 -77.1297 250° West 467 537 38,000  Level New York Center
11:53PM 41.4469 -77.4803 249° West 459 528 38,000  Level Cleveland Center
11:54PM 41.3992 -77.6461 249° West 465 535 38,000  Level Cleveland Center
11:55PM 41.3531 -77.8058 249° West 465 535 38,000  Level Cleveland Center
11:56PM 41.3069 -77.9681 249° West 465 535 38,000  Level Cleveland Center
11:57PM 41.2606 -78.1303 249° West 470 541 38,000  Level Cleveland Center
11:58PM 41.2158 -78.2919 250° West 476 548 38,000  Level Cleveland Center
11:59PM 41.1689 -78.4536 249° West 471 542 38,000  Level Cleveland Center
12:00AM 41.1217 -78.6150 249° West 471 542 38,000  Level Cleveland Center
12:01AM 41.0744 -78.7761 249° West 471 542 38,000  Level Cleveland Center
12:02AM 41.0267 -78.9344 248° West 471 542 38,000  Level Cleveland Center
12:03AM 40.9789 -79.0978 249° West 471 542 38,000  Level Cleveland Center
12:04AM 40.9308 -79.2556 248° West 471 542 38,000  Level Cleveland Center
12:05AM 40.8806 -79.4186 248° West 476 548 38,000  Level Cleveland Center
12:06AM 40.8319 -79.5758 248° West 476 548 38,000  Level Cleveland Center
12:07AM 40.7833 -79.7358 248° West 476 548 38,000  Level Cleveland Center
12:08AM 40.7364 -79.8925 248° West 476 548 38,000  Level Cleveland Center
12:09AM 40.6831 -80.0575 247° West 481 554 38,000  Level Cleveland Center
12:10AM 40.6336 -80.2219 248° West 481 554 38,000  Level Cleveland Center
12:11AM 40.5881 -80.3644 247° West 481 554 38,000  Level Cleveland Center
12:12AM 40.5550 -80.5311 255° West 475 547 38,000  Level Cleveland Center
12:13AM 40.5217 -80.7006 256° West 469 540 38,000  Level Cleveland Center
12:14AM 40.4900 -80.8669 256° West 469 540 38,000  Level Cleveland Center
12:16AM 40.4369 -81.1403 256° West 471 542 38,000  Level Indianapolis Center
12:17AM 40.3936 -81.3081 251° West 480 552 38,000  Level Indianapolis Center
12:18AM 40.3419 -81.4742 248° West 485 558 38,000  Level Indianapolis Center
12:19AM 40.2906 -81.6406 248° West 486 559 38,000  Level Indianapolis Center
12:20AM 40.2361 -81.8142 248° West 485 558 38,000  Level Indianapolis Center
12:21AM 40.1836 -81.9789 247° West 486 559 38,000  Level Indianapolis Center
12:22AM 40.1314 -82.1408 247° West 481 554 38,000  Level Indianapolis Center
12:23AM 40.0789 -82.3036 247° West 483 556 38,000  Level Indianapolis Center
12:24AM 40.0267 -82.4650 247° West 481 554 38,000  Level Indianapolis Center
12:25AM 39.9731 -82.6253 246° West 477 549 38,000  Level Indianapolis Center
12:26AM 39.9203 -82.7850 247° West 475 547 38,000 -780 Level Indianapolis Center
12:27AM 39.8681 -82.9461 247° West 476 548 36,500 -2,640 Descending Indianapolis Center
12:28AM 39.8133 -83.1086 246° West 482 555 32,700 -3,720 Descending Indianapolis Center
12:29AM 39.7581 -83.2719 246° West 485 558 29,100 -3,960 Descending Indianapolis Center
12:30AM 39.7031 -83.4303 246° West 469 540 24,800 -3,780 Descending Indianapolis Center
12:31AM 39.6525 -83.5806 246° West 446 513 21,500 -3,180 Descending Indianapolis Center
12:32AM 39.6050 -83.7194 246° West 419 482 18,400 -3,000 Descending Indianapolis Center
12:33AM 39.5608 -83.8500 246° West 395 455 15,500 -2,820 Descending Indianapolis Center
12:34AM 39.5175 -83.9753 246° West 380 437 12,700 -2,280 Descending Indianapolis Center
12:35AM 39.4664 -84.0894 240° Southwest 362 417 11,000 -900 Descending Indianapolis Center
12:36AM 39.3972 -84.1828 226° Southwest 357 411 10,900 -480 Descending Indianapolis Center
12:37AM 39.3306 -84.2714 226° Southwest 346 398 10,100 -840 Descending Indianapolis Center
12:38AM 39.2764 -84.3444 226° Southwest 291 335 9,300 -1,080 Descending Indianapolis Center
12:39AM 39.2347 -84.4039 228° Southwest 272 313 8,000 -1,200 Descending Indianapolis Center
12:40AM 39.1858 -84.4750 228° Southwest 265 305 6,900 -600 Descending Indianapolis Center
12:41AM 39.1650 -84.5531 251° West 245 282 6,900  Level Indianapolis Center
12:42AM 39.1661 -84.6367 271° West 234 269 6,900 60 Level Indianapolis Center
12:42AM 39.1667 -84.6667 271° West 204 235 7,000 -420 Climbing Cincinnati TRACON
12:43AM 39.1667 -84.7333 270° West 160 184 6,400 -900 Descending Cincinnati TRACON
12:44AM 39.1667 -84.7833 270° West 164 189 5,300 -1,140 Descending Cincinnati TRACON
12:45AM 39.1667 -84.8500 270° West 164 189 4,200 -1,020 Descending Cincinnati TRACON
12:46AM 39.1697 -84.8850 276° West 165 190 3,600 -420 Descending Indianapolis Center
12:47AM 39.1250 -84.8819 177° South 184 212 3,500 -120 Descending Indianapolis Center
12:47AM 39.1167 -84.8667 125° Southeast 180 207 3,500 -720 Level Cincinnati TRACON
12:48AM 39.0667 -84.8333 153° Southeast 180 207 2,600 -600 Descending Cincinnati TRACON
12:49AM 39.0500 -84.7833 113° Southeast 174 200 2,300 -600 Descending Cincinnati TRACON
12:50AM 39.0500 -84.7333 90° East 141 162 1,400 -900 Descending Cincinnati TRACON
12:52AM 39.0333 -84.6667 104° East  Level FlightAware Approximate
12:59AM 39.0488 -84.6678 104° East  Level Estimated